createdAt,value
2018-09-11T00:00:44.220Z,5.37
2018-09-11T00:03:12.538Z,5.27
2018-09-11T00:05:40.418Z,5.17
2018-09-11T00:08:08.231Z,4.43
2018-09-11T00:10:36.553Z,5.23
2018-09-11T00:13:04.427Z,5.97
2018-09-11T00:15:32.317Z,4.77
2018-09-11T00:18:00.109Z,5.23
2018-09-11T00:20:27.993Z,5.30
2018-09-11T00:22:55.785Z,5.80
2018-09-11T00:25:23.598Z,5.53
2018-09-11T00:27:52.463Z,5.03
2018-09-11T00:30:20.424Z,5.63
2018-09-11T00:32:48.855Z,5.23
2018-09-11T00:35:16.642Z,5.90
2018-09-11T00:37:44.491Z,5.03
2018-09-11T00:40:12.263Z,5.70
2018-09-11T00:42:40.041Z,5.50
2018-09-11T00:45:07.935Z,5.30
2018-09-11T00:47:36.250Z,5.33
2018-09-11T00:50:05.231Z,5.67
2018-09-11T00:52:33.003Z,5.20
2018-09-11T00:55:00.783Z,5.30
2018-09-11T00:57:28.578Z,6.23
2018-09-11T00:59:56.381Z,6.33
2018-09-11T01:02:24.251Z,5.90
2018-09-11T01:04:52.612Z,6.43
2018-09-11T01:07:20.512Z,5.87
2018-09-11T01:09:48.478Z,6.43
2018-09-11T01:12:16.338Z,6.37
2018-09-11T01:14:44.100Z,5.90
2018-09-11T01:17:11.970Z,5.67
2018-09-11T01:19:39.770Z,6.17
2018-09-11T01:22:07.547Z,5.87
2018-09-11T01:24:35.338Z,6.23
2018-09-11T01:27:03.219Z,6.10
2018-09-11T01:29:31.664Z,5.53
2018-09-11T01:32:00.408Z,5.60
2018-09-11T01:34:28.218Z,5.33
2018-09-11T01:36:56.208Z,6.17
2018-09-11T01:39:23.995Z,5.50
2018-09-11T01:41:52.758Z,5.80
2018-09-11T01:44:20.596Z,5.90
2018-09-11T01:46:48.515Z,6.43
2018-09-11T01:49:17.107Z,5.93
2018-09-11T01:51:44.918Z,5.77
2018-09-11T01:54:12.832Z,5.53
2018-09-11T01:56:40.862Z,5.13
2018-09-11T01:59:09.030Z,5.57
2018-09-11T02:01:36.823Z,6.27
2018-09-11T02:04:04.614Z,5.53
2018-09-11T02:06:32.494Z,5.77
2018-09-11T02:09:00.368Z,5.80
2018-09-11T02:11:28.563Z,5.70
2018-09-11T02:13:56.987Z,5.53
2018-09-11T02:16:24.911Z,5.73
2018-09-11T02:18:52.718Z,5.13
2018-09-11T02:21:20.486Z,5.10
2018-09-11T02:23:48.271Z,5.83
2018-09-11T02:26:16.090Z,5.67
2018-09-11T02:28:44.181Z,5.27
2018-09-11T02:31:11.963Z,4.97
2018-09-11T02:33:39.725Z,5.47
2018-09-11T02:36:07.622Z,4.97
2018-09-11T02:38:35.460Z,5.03
2018-09-11T02:41:03.402Z,5.13
2018-09-11T02:43:31.234Z,5.67
2018-09-11T02:45:59.022Z,5.60
2018-09-11T02:48:26.872Z,5.60
2018-09-11T02:50:54.831Z,5.30
2018-09-11T02:53:22.668Z,5.30
2018-09-11T02:55:50.671Z,5.60
2018-09-11T02:58:18.472Z,5.23
2018-09-11T03:00:46.243Z,5.60
2018-09-11T03:03:14.123Z,5.23
2018-09-11T03:05:41.910Z,5.90
2018-09-11T03:08:09.786Z,5.83
2018-09-11T03:10:37.562Z,5.17
2018-09-11T03:13:05.527Z,5.87
2018-09-11T03:15:33.331Z,5.97
2018-09-11T03:18:02.048Z,5.50
2018-09-11T03:20:29.835Z,6.27
2018-09-11T03:22:57.658Z,5.70
2018-09-11T03:25:25.566Z,5.50
2018-09-11T03:27:53.389Z,6.57
2018-09-11T03:30:21.171Z,5.30
2018-09-11T03:32:49.036Z,5.50
2018-09-11T03:35:16.983Z,6.03
2018-09-11T03:37:44.810Z,5.70
2018-09-11T03:40:12.569Z,5.20
2018-09-11T03:42:40.387Z,5.03
2018-09-11T03:45:08.211Z,4.90
2018-09-11T03:47:36.162Z,5.33
2018-09-11T03:50:04.037Z,5.17
2018-09-11T03:52:31.847Z,5.33
2018-09-11T03:54:59.613Z,5.67
2018-09-11T03:57:27.468Z,5.93
2018-09-11T03:59:55.231Z,6.17
2018-09-11T04:02:23.012Z,6.63
2018-09-11T04:04:50.882Z,8.10
2018-09-11T04:07:18.699Z,7.00
2018-09-11T04:09:47.708Z,7.00
2018-09-11T04:12:15.840Z,6.47
2018-09-11T04:14:43.658Z,6.13
2018-09-11T04:17:11.497Z,6.73
2018-09-11T04:19:40.387Z,7.93
2018-09-11T04:22:08.186Z,7.13
2018-09-11T04:24:36.528Z,6.97
2018-09-11T04:27:05.475Z,6.43
2018-09-11T04:29:33.903Z,6.73
2018-09-11T04:32:02.415Z,6.30
2018-09-11T04:34:30.291Z,6.20
2018-09-11T04:36:58.130Z,6.60
2018-09-11T04:39:25.905Z,6.03
2018-09-11T04:41:53.762Z,6.10
2018-09-11T04:44:21.566Z,5.87
2018-09-11T04:46:49.455Z,4.90
2018-09-11T04:49:17.230Z,5.90
2018-09-11T04:51:45.063Z,5.87
2018-09-11T04:54:12.966Z,6.00
2018-09-11T04:56:40.906Z,6.07
2018-09-11T04:59:08.682Z,6.70
2018-09-11T05:01:37.576Z,5.87
2018-09-11T05:04:05.490Z,6.33
2018-09-11T05:06:34.120Z,6.33
2018-09-11T05:09:01.883Z,6.53
2018-09-11T05:11:29.702Z,5.40
2018-09-11T05:13:57.530Z,5.10
2018-09-11T05:16:25.335Z,6.23
2018-09-11T05:18:53.146Z,6.40
2018-09-11T05:21:21.006Z,5.23
2018-09-11T05:23:49.170Z,5.77
2018-09-11T05:26:17.080Z,5.50
2018-09-11T05:28:44.940Z,5.77
2018-09-11T05:31:12.788Z,6.47
2018-09-11T05:33:40.588Z,5.97
2018-09-11T05:36:08.545Z,6.33
2018-09-11T05:38:36.406Z,6.20
2018-09-11T05:41:04.279Z,5.13
2018-09-11T05:43:32.062Z,6.33
2018-09-11T05:45:59.940Z,7.87
2018-09-11T05:48:27.712Z,6.57
2018-09-11T05:50:56.018Z,5.70
2018-09-11T05:53:23.891Z,5.97
2018-09-11T05:55:51.818Z,5.40
2018-09-11T05:58:19.750Z,5.17
2018-09-11T06:00:47.667Z,5.73
2018-09-11T06:03:15.503Z,5.73
2018-09-11T06:05:43.320Z,7.10
2018-09-11T06:08:12.098Z,5.60
2018-09-11T06:10:39.947Z,5.67
2018-09-11T06:13:07.913Z,5.23
2018-09-11T06:15:35.764Z,5.87
2018-09-11T06:18:03.612Z,5.73
2018-09-11T06:20:32.211Z,4.97
2018-09-11T06:23:00.056Z,5.37
2018-09-11T06:25:27.858Z,5.67
2018-09-11T06:27:55.728Z,4.70
2018-09-11T06:30:23.502Z,5.60
2018-09-11T06:32:51.335Z,5.17
2018-09-11T06:35:19.326Z,5.20
2018-09-11T06:37:47.132Z,5.00
2018-09-11T06:40:15.371Z,4.67
2018-09-11T06:42:43.266Z,4.33
2018-09-11T06:45:11.114Z,5.37
2018-09-11T06:47:38.964Z,4.63
2018-09-11T06:50:06.940Z,4.50
2018-09-11T06:52:34.869Z,4.40
2018-09-11T06:55:02.744Z,4.60
2018-09-11T06:57:30.698Z,4.70
2018-09-11T06:59:58.500Z,4.37
2018-09-11T07:02:26.276Z,4.93
2018-09-11T07:04:54.161Z,4.47
2018-09-11T07:07:22.044Z,4.67
2018-09-11T07:09:49.968Z,4.67
2018-09-11T07:12:17.816Z,4.17
2018-09-11T07:14:45.615Z,4.13
2018-09-11T07:17:13.470Z,4.97
2018-09-11T07:19:41.382Z,4.77
2018-09-11T07:22:09.336Z,4.13
2018-09-11T07:24:43.607Z,4.03
2018-09-11T07:27:11.446Z,4.73
2018-09-11T07:29:39.338Z,4.47
2018-09-11T07:32:07.222Z,3.90
2018-09-11T07:34:35.029Z,4.17
2018-09-11T07:37:02.805Z,4.70
2018-09-11T07:39:30.598Z,4.37
2018-09-11T07:41:58.489Z,3.90
2018-09-11T07:44:26.879Z,4.27
2018-09-11T07:46:54.682Z,4.40
2018-09-11T07:49:22.517Z,5.03
2018-09-11T07:51:50.293Z,4.13
2018-09-11T07:54:18.136Z,4.27
2018-09-11T07:56:46.812Z,4.77
2018-09-11T07:59:14.628Z,4.50
2018-09-11T08:01:42.599Z,3.97
2018-09-11T08:04:10.713Z,4.10
2018-09-11T08:06:38.503Z,4.77
2018-09-11T08:09:08.283Z,4.40
2018-09-11T08:11:36.210Z,4.63
2018-09-11T08:14:04.074Z,4.43
2018-09-11T08:16:32.028Z,4.13
2018-09-11T08:18:59.792Z,4.40
2018-09-11T08:21:27.577Z,3.73
2018-09-11T08:23:55.388Z,3.90
2018-09-11T08:26:23.224Z,4.20
2018-09-11T08:28:51.088Z,4.20
2018-09-11T08:31:18.881Z,4.10
2018-09-11T08:33:46.775Z,4.37
2018-09-11T08:36:14.543Z,4.33
2018-09-11T08:38:42.459Z,3.97
2018-09-11T08:41:10.321Z,4.70
2018-09-11T08:43:38.560Z,4.43
2018-09-11T08:46:06.885Z,4.33
2018-09-11T08:48:34.771Z,3.67
2018-09-11T08:51:02.584Z,4.13
2018-09-11T08:53:30.408Z,4.47
2018-09-11T08:55:58.231Z,4.20
2018-09-11T08:58:26.118Z,3.87
2018-09-11T09:00:54.045Z,3.80
2018-09-11T09:03:21.814Z,4.30
2018-09-11T09:05:49.636Z,4.13
2018-09-11T09:08:17.900Z,5.07
2018-09-11T09:10:45.711Z,4.43
2018-09-11T09:13:13.499Z,4.30
2018-09-11T09:15:41.314Z,4.00
2018-09-11T09:18:09.132Z,4.27
2018-09-11T09:20:36.916Z,4.27
2018-09-11T09:23:04.837Z,4.50
2018-09-11T09:25:32.666Z,3.80
2018-09-11T09:28:00.541Z,4.30
2018-09-11T09:30:29.156Z,4.23
2018-09-11T09:32:57.266Z,4.23
2018-09-11T09:35:25.068Z,4.63
2018-09-11T09:37:52.851Z,4.23
2018-09-11T09:40:20.725Z,3.60
2018-09-11T09:42:48.702Z,4.27
2018-09-11T09:45:16.501Z,4.10
2018-09-11T09:47:44.291Z,3.87
2018-09-11T09:50:12.079Z,4.00
2018-09-11T09:52:39.857Z,4.50
2018-09-11T09:55:08.075Z,3.93
2018-09-11T09:57:35.908Z,4.63
2018-09-11T10:00:03.960Z,4.93
2018-09-11T10:02:31.794Z,4.50
2018-09-11T10:04:59.616Z,4.50
2018-09-11T10:07:27.439Z,3.90
2018-09-11T10:09:55.229Z,4.27
2018-09-11T10:12:23.019Z,3.87
2018-09-11T10:14:50.850Z,4.37
2018-09-11T10:17:18.642Z,4.10
2018-09-11T10:19:46.434Z,4.37
2018-09-11T10:22:14.226Z,4.40
2018-09-11T10:24:42.052Z,3.97
2018-09-11T10:27:10.381Z,4.40
2018-09-11T10:29:38.410Z,4.57
2018-09-11T10:32:06.316Z,4.33
2018-09-11T10:34:34.108Z,3.90
2018-09-11T10:37:01.911Z,4.70
2018-09-11T10:39:29.731Z,4.27
2018-09-11T10:41:57.513Z,3.87
2018-09-11T10:44:25.291Z,4.47
2018-09-11T10:46:53.101Z,3.93
2018-09-11T10:49:20.915Z,4.43
2018-09-11T10:51:48.788Z,4.07
2018-09-11T10:54:16.544Z,4.03
2018-09-11T10:56:44.386Z,4.37
2018-09-11T10:59:12.254Z,3.70
2018-09-11T11:01:40.039Z,3.70
2018-09-11T11:04:07.942Z,4.77
2018-09-11T11:06:35.727Z,3.97
2018-09-11T11:09:03.897Z,4.33
2018-09-11T11:11:31.684Z,4.50
2018-09-11T11:13:59.482Z,4.00
2018-09-11T11:16:27.269Z,4.40
2018-09-11T11:18:55.081Z,4.00
2018-09-11T11:21:22.905Z,4.37
2018-09-11T11:23:50.731Z,4.17
2018-09-11T11:26:18.531Z,4.03
2018-09-11T11:28:46.357Z,5.13
2018-09-11T11:31:14.199Z,4.27
2018-09-11T11:33:42.025Z,4.57
2018-09-11T11:36:09.801Z,4.80
2018-09-11T11:38:37.677Z,4.20
2018-09-11T11:41:05.526Z,4.70
2018-09-11T11:43:33.380Z,4.70
2018-09-11T11:46:01.187Z,4.13
2018-09-11T11:48:29.017Z,4.40
2018-09-11T11:50:56.831Z,4.23
2018-09-11T11:53:24.681Z,4.33
2018-09-11T11:55:52.455Z,3.93
2018-09-11T11:58:20.387Z,4.13
2018-09-11T12:00:48.442Z,3.60
2018-09-11T12:03:16.236Z,3.70
2018-09-11T12:05:44.048Z,4.10
2018-09-11T12:08:11.905Z,3.43
2018-09-11T12:10:39.755Z,3.43
2018-09-11T12:13:07.607Z,3.77
2018-09-11T12:15:35.534Z,3.67
2018-09-11T12:18:03.511Z,3.80
2018-09-11T12:20:31.364Z,3.83
2018-09-11T12:22:59.183Z,3.57
2018-09-11T12:25:27.077Z,3.50
2018-09-11T12:27:55.070Z,3.97
2018-09-11T12:30:22.838Z,3.67
2018-09-11T12:32:50.659Z,3.70
2018-09-11T12:35:18.426Z,3.13
2018-09-11T12:37:46.382Z,3.70
2018-09-11T12:40:14.184Z,3.80
2018-09-11T12:42:41.969Z,3.50
2018-09-11T12:45:09.877Z,3.60
2018-09-11T12:47:37.970Z,3.63
2018-09-11T12:50:05.560Z,3.43
2018-09-11T12:52:33.416Z,3.43
2018-09-11T12:55:07.759Z,3.83
2018-09-11T12:57:35.563Z,4.20
2018-09-11T13:00:03.483Z,3.43
2018-09-11T13:02:31.382Z,3.73
2018-09-11T13:04:59.137Z,3.97
2018-09-11T13:07:26.932Z,4.43
2018-09-11T13:09:54.723Z,4.40
2018-09-11T13:12:22.563Z,4.43
2018-09-11T13:14:50.353Z,3.60
2018-09-11T13:17:18.212Z,3.97
2018-09-11T13:19:46.011Z,3.70
2018-09-11T13:22:13.887Z,4.10
2018-09-11T13:24:41.790Z,3.97
2018-09-11T13:27:09.590Z,4.00
2018-09-11T13:29:37.422Z,4.30
2018-09-11T13:32:05.198Z,3.30
2018-09-11T13:34:33.119Z,3.80
2018-09-11T13:37:00.976Z,5.00
2018-09-11T13:39:28.861Z,4.33
2018-09-11T13:41:56.698Z,3.70
2018-09-11T13:44:24.555Z,4.03
2018-09-11T13:46:52.360Z,4.00
2018-09-11T13:49:20.165Z,4.00
2018-09-11T13:51:47.983Z,3.73
2018-09-11T13:54:15.779Z,4.13
2018-09-11T13:56:43.606Z,4.00
2018-09-11T13:59:11.391Z,4.13
2018-09-11T14:01:39.194Z,4.00
2018-09-11T14:04:06.980Z,3.50
2018-09-11T14:06:34.935Z,3.50
2018-09-11T14:09:03.721Z,3.53
2018-09-11T14:11:31.518Z,3.87
2018-09-11T14:14:00.723Z,3.50
2018-09-11T14:16:28.898Z,3.43
2018-09-11T14:18:56.729Z,3.33
2018-09-11T14:21:24.572Z,4.07
2018-09-11T14:23:52.754Z,3.03
2018-09-11T14:26:20.932Z,3.63
2018-09-11T14:28:48.815Z,3.00
2018-09-11T14:31:16.612Z,3.03
2018-09-11T14:33:44.395Z,3.30
2018-09-11T14:36:13.090Z,3.10
2018-09-11T14:38:41.077Z,3.07
2018-09-11T14:41:08.935Z,2.53
2018-09-11T14:43:36.732Z,3.20
2018-09-11T14:46:04.575Z,2.73
2018-09-11T14:48:32.373Z,2.80
2018-09-11T14:51:00.243Z,2.40
2018-09-11T14:53:28.018Z,3.13
2018-09-11T14:55:55.828Z,2.60
2018-09-11T14:58:23.736Z,2.77
2018-09-11T15:00:51.496Z,2.67
2018-09-11T15:03:19.299Z,2.50
2018-09-11T15:05:47.504Z,2.47
2018-09-11T15:08:15.306Z,2.90
2018-09-11T15:10:43.094Z,3.17
2018-09-11T15:13:10.963Z,2.93
2018-09-11T15:15:38.757Z,2.90
2018-09-11T15:18:06.619Z,2.60
2018-09-11T15:20:34.520Z,3.00
2018-09-11T15:23:02.349Z,2.67
2018-09-11T15:25:30.165Z,2.63
2018-09-11T15:27:57.993Z,2.80
2018-09-11T15:30:25.856Z,2.70
2018-09-11T15:32:53.693Z,2.80
2018-09-11T15:35:21.519Z,2.70
2018-09-11T15:37:49.324Z,3.40
2018-09-11T15:40:17.190Z,3.23
2018-09-11T15:42:45.003Z,3.17
2018-09-11T15:45:12.927Z,2.83
2018-09-11T15:47:40.810Z,3.50
2018-09-11T15:50:08.640Z,3.70
2018-09-11T15:52:36.537Z,3.30
2018-09-11T15:55:04.546Z,3.67
2018-09-11T15:57:32.335Z,3.70
2018-09-11T16:00:00.180Z,3.87
2018-09-11T16:02:27.986Z,4.37
2018-09-11T16:04:55.776Z,3.83
2018-09-11T16:07:23.583Z,4.00
2018-09-11T16:09:51.368Z,4.33
2018-09-11T16:12:19.192Z,3.97
2018-09-11T16:14:47.062Z,4.47
2018-09-11T16:17:14.859Z,4.57
2018-09-11T16:19:42.700Z,4.30
2018-09-11T16:22:10.898Z,4.80
2018-09-11T16:24:38.980Z,4.70
2018-09-11T16:27:06.788Z,4.43
2018-09-11T16:29:34.713Z,4.50
2018-09-11T16:32:02.514Z,4.80
2018-09-11T16:34:30.376Z,5.40
2018-09-11T16:36:58.168Z,4.90
2018-09-11T16:39:25.994Z,4.60
2018-09-11T16:41:54.831Z,4.83
2018-09-11T16:44:22.840Z,4.57
2018-09-11T16:46:50.631Z,4.67
2018-09-11T16:49:18.407Z,5.17
2018-09-11T16:51:46.225Z,5.20
2018-09-11T16:54:14.962Z,5.33
2018-09-11T16:56:42.768Z,5.43
2018-09-11T16:59:10.617Z,4.83
2018-09-11T17:01:38.568Z,5.00
2018-09-11T17:04:06.502Z,5.40
2018-09-11T17:06:34.362Z,6.30
2018-09-11T17:09:02.152Z,4.53
2018-09-11T17:11:29.979Z,4.90
2018-09-11T17:13:57.830Z,5.23
2018-09-11T17:16:25.626Z,5.50
2018-09-11T17:18:53.457Z,4.80
2018-09-11T17:21:21.298Z,5.07
2018-09-11T17:23:49.155Z,6.20
2018-09-11T17:26:16.984Z,5.17
2018-09-11T17:28:44.848Z,5.47
2018-09-11T17:31:12.627Z,4.50
2018-09-11T17:33:40.428Z,4.47
2018-09-11T17:36:08.271Z,5.07
2018-09-11T17:38:36.127Z,5.13
2018-09-11T17:41:03.991Z,5.43
2018-09-11T17:43:31.794Z,5.40
2018-09-11T17:45:59.567Z,4.40
2018-09-11T17:48:27.461Z,5.13
2018-09-11T17:50:55.603Z,5.20
2018-09-11T17:53:23.538Z,5.33
2018-09-11T17:55:51.372Z,6.00
2018-09-11T17:58:19.318Z,5.83
2018-09-11T18:00:47.152Z,5.27
2018-09-11T18:03:14.950Z,4.43
2018-09-11T18:05:42.826Z,4.40
2018-09-11T18:08:10.617Z,5.47
2018-09-11T18:10:38.421Z,6.67
2018-09-11T18:13:06.190Z,5.83
2018-09-11T18:15:34.051Z,5.37
2018-09-11T18:18:01.925Z,5.80
2018-09-11T18:20:29.784Z,5.47
2018-09-11T18:22:57.591Z,5.17
2018-09-11T18:25:25.377Z,4.50
2018-09-11T18:27:53.253Z,5.13
2018-09-11T18:30:22.261Z,4.73
2018-09-11T18:32:50.111Z,5.60
2018-09-11T18:35:17.884Z,4.73
2018-09-11T18:37:45.727Z,4.57
2018-09-11T18:40:13.588Z,4.13
2018-09-11T18:42:41.592Z,4.23
2018-09-11T18:45:10.515Z,3.83
2018-09-11T18:47:38.285Z,4.43
2018-09-11T18:50:06.187Z,5.53
2018-09-11T18:52:34.083Z,5.07
2018-09-11T18:55:01.995Z,5.53
2018-09-11T18:57:29.852Z,5.40
2018-09-11T18:59:57.682Z,4.73
2018-09-11T19:02:25.461Z,5.63
2018-09-11T19:04:53.363Z,4.97
2018-09-11T19:07:21.210Z,4.73
2018-09-11T19:09:48.975Z,5.43
2018-09-11T19:12:16.897Z,5.03
2018-09-11T19:14:44.671Z,4.47
2018-09-11T19:17:12.559Z,3.90
2018-09-11T19:19:40.334Z,3.63
2018-09-11T19:22:08.247Z,3.80
2018-09-11T19:24:36.029Z,3.70
2018-09-11T19:27:03.873Z,3.50
2018-09-11T19:29:31.668Z,4.20
2018-09-11T19:31:59.490Z,4.10
2018-09-11T19:34:27.431Z,4.00
2018-09-11T19:36:55.390Z,4.20
2018-09-11T19:39:23.248Z,4.23
2018-09-11T19:41:51.020Z,3.90
2018-09-11T19:44:18.933Z,4.60
2018-09-11T19:46:46.777Z,3.63
2018-09-11T19:49:14.720Z,3.73
2018-09-11T19:51:42.520Z,4.70
2018-09-11T19:54:10.443Z,3.63
2018-09-11T19:56:38.300Z,3.90
2018-09-11T19:59:06.215Z,4.10
2018-09-11T20:01:34.683Z,4.30
2018-09-11T20:04:02.460Z,3.73
2018-09-11T20:06:30.331Z,3.77
2018-09-11T20:08:58.115Z,3.93
2018-09-11T20:11:26.120Z,4.30
2018-09-11T20:13:54.547Z,3.80
2018-09-11T20:16:22.347Z,3.83
2018-09-11T20:18:50.205Z,4.10
2018-09-11T20:21:17.968Z,4.23
2018-09-11T20:23:45.863Z,4.07
2018-09-11T20:26:13.838Z,4.57
2018-09-11T20:28:41.750Z,4.50
2018-09-11T20:31:09.842Z,4.10
2018-09-11T20:33:37.934Z,4.80
2018-09-11T20:36:05.834Z,4.60
2018-09-11T20:38:33.672Z,4.00
2018-09-11T20:41:01.627Z,3.93
2018-09-11T20:43:29.391Z,4.27
2018-09-11T20:45:57.171Z,4.73
2018-09-11T20:48:24.991Z,4.90
2018-09-11T20:50:52.824Z,4.70
2018-09-11T20:53:20.700Z,4.07
2018-09-11T20:55:48.796Z,3.63
2018-09-11T20:58:16.599Z,4.37
2018-09-11T21:00:44.751Z,4.53
2018-09-11T21:03:12.642Z,4.93
2018-09-11T21:05:40.419Z,5.17
2018-09-11T21:08:08.258Z,4.90
2018-09-11T21:10:36.059Z,4.70
2018-09-11T21:13:03.830Z,4.83
2018-09-11T21:15:31.643Z,4.83
2018-09-11T21:17:59.425Z,4.50
2018-09-11T21:20:27.275Z,4.50
2018-09-11T21:22:55.093Z,4.27
2018-09-11T21:25:22.930Z,5.20
2018-09-11T21:27:50.717Z,3.53
2018-09-11T21:30:18.500Z,3.77
2018-09-11T21:32:46.374Z,3.97
2018-09-11T21:35:14.169Z,4.23
2018-09-11T21:37:41.975Z,4.50
2018-09-11T21:40:09.758Z,4.20
2018-09-11T21:42:37.795Z,4.40
2018-09-11T21:45:05.738Z,5.03
2018-09-11T21:47:33.710Z,4.90
2018-09-11T21:50:01.477Z,4.67
2018-09-11T21:52:29.287Z,5.53
2018-09-11T21:54:57.152Z,4.40
2018-09-11T21:57:25.006Z,4.40
2018-09-11T21:59:52.871Z,4.43
2018-09-11T22:02:20.631Z,5.60
2018-09-11T22:04:48.422Z,4.90
2018-09-11T22:07:16.191Z,5.30
2018-09-11T22:09:45.302Z,4.93
2018-09-11T22:12:13.126Z,5.37
2018-09-11T22:14:40.915Z,5.00
2018-09-11T22:17:08.726Z,5.33
2018-09-11T22:19:36.500Z,5.10
2018-09-11T22:22:04.278Z,5.03
2018-09-11T22:24:32.041Z,5.03
2018-09-11T22:26:59.826Z,5.37
2018-09-11T22:29:27.655Z,5.03
2018-09-11T22:31:55.538Z,6.53
2018-09-11T22:34:23.301Z,5.97
2018-09-11T22:36:51.148Z,5.90
2018-09-11T22:39:19.083Z,5.77
2018-09-11T22:41:46.947Z,6.10
2018-09-11T22:44:14.727Z,5.80
2018-09-11T22:46:42.528Z,6.93
2018-09-11T22:49:11.221Z,5.93
2018-09-11T22:51:39.038Z,6.20
2018-09-11T22:54:06.867Z,5.47
2018-09-11T22:56:34.686Z,5.73
2018-09-11T22:59:03.068Z,6.63
2018-09-11T23:01:31.035Z,5.77
2018-09-11T23:03:59.438Z,4.87
2018-09-11T23:06:27.343Z,4.90
2018-09-11T23:08:55.122Z,4.87
2018-09-11T23:11:23.545Z,5.67
2018-09-11T23:13:51.336Z,5.67
2018-09-11T23:16:19.128Z,5.63
2018-09-11T23:18:46.963Z,5.77
2018-09-11T23:21:14.728Z,4.83
2018-09-11T23:23:42.555Z,5.97
2018-09-11T23:26:11.370Z,4.80
2018-09-11T23:28:40.279Z,5.07
2018-09-11T23:31:08.509Z,5.03
2018-09-11T23:33:36.404Z,4.60
2018-09-11T23:36:04.259Z,5.17
2018-09-11T23:38:32.468Z,4.87
2018-09-11T23:41:00.327Z,5.07
2018-09-11T23:43:28.135Z,5.03
2018-09-11T23:45:55.972Z,4.30
2018-09-11T23:48:23.794Z,5.40
2018-09-11T23:50:51.657Z,5.07
2018-09-11T23:53:19.423Z,5.63
2018-09-11T23:55:47.188Z,5.60
2018-09-11T23:58:14.959Z,5.20
